sensor_id;sensor_type;location;lat;lon;timestamp;pressure;altitude;pressure_sealevel;temperature;humidity
66176;BME280;52977;44.816;20.538;2023-06-14T00:02:09;99350.31;;;18.70;75.20
66176;BME280;52977;44.816;20.538;2023-06-14T00:04:34;99341.16;;;18.58;75.47
66176;BME280;52977;44.816;20.538;2023-06-14T00:07:00;99382.38;;;18.82;76.10
66176;BME280;52977;44.816;20.538;2023-06-14T00:09:26;99350.22;;;18.55;76.28
66176;BME280;52977;44.816;20.538;2023-06-14T00:11:52;99345.13;;;18.57;77.01
66176;BME280;52977;44.816;20.538;2023-06-14T00:14:18;99389.09;;;18.81;78.32
66176;BME280;52977;44.816;20.538;2023-06-14T00:16:43;99375.13;;;18.59;79.27
66176;BME280;52977;44.816;20.538;2023-06-14T00:19:09;99365.91;;;18.40;79.54
66176;BME280;52977;44.816;20.538;2023-06-14T00:21:36;99384.63;;;18.61;79.82
66176;BME280;52977;44.816;20.538;2023-06-14T00:24:03;99389.41;;;18.68;79.77
66176;BME280;52977;44.816;20.538;2023-06-14T00:26:29;99285.03;;;17.91;80.06
66176;BME280;52977;44.816;20.538;2023-06-14T00:28:55;99384.94;;;18.53;79.99
66176;BME280;52977;44.816;20.538;2023-06-14T00:31:22;99387.41;;;18.65;79.97
66176;BME280;52977;44.816;20.538;2023-06-14T00:33:48;99362.78;;;18.42;80.16
66176;BME280;52977;44.816;20.538;2023-06-14T00:36:14;99336.44;;;18.03;83.09
66176;BME280;52977;44.816;20.538;2023-06-14T00:38:39;99396.53;;;18.17;84.83
66176;BME280;52977;44.816;20.538;2023-06-14T00:41:05;99388.63;;;18.16;83.86
66176;BME280;52977;44.816;20.538;2023-06-14T00:43:31;99322.25;;;17.67;82.90
66176;BME280;52977;44.816;20.538;2023-06-14T00:45:56;99375.63;;;18.20;82.73
66176;BME280;52977;44.816;20.538;2023-06-14T00:48:22;99391.25;;;18.50;81.44
66176;BME280;52977;44.816;20.538;2023-06-14T00:50:49;99308.09;;;18.10;79.68
66176;BME280;52977;44.816;20.538;2023-06-14T00:53:16;99372.38;;;18.62;79.29
66176;BME280;52977;44.816;20.538;2023-06-14T00:55:50;99311.16;;;18.01;79.16
66176;BME280;52977;44.816;20.538;2023-06-14T00:58:16;99353.16;;;18.25;79.89
66176;BME280;52977;44.816;20.538;2023-06-14T01:00:42;99370.31;;;18.49;79.62
66176;BME280;52977;44.816;20.538;2023-06-14T01:03:08;99372.28;;;18.48;79.80
66176;BME280;52977;44.816;20.538;2023-06-14T01:05:38;99363.81;;;18.26;81.20
66176;BME280;52977;44.816;20.538;2023-06-14T01:10:56;99363.56;;;18.42;82.35
66176;BME280;52977;44.816;20.538;2023-06-14T01:13:29;99370.25;;;18.41;83.06
66176;BME280;52977;44.816;20.538;2023-06-14T01:15:58;99333.06;;;18.28;82.33
66176;BME280;52977;44.816;20.538;2023-06-14T01:18:25;99367.94;;;18.47;83.29
66176;BME280;52977;44.816;20.538;2023-06-14T01:20:53;99369.44;;;18.34;84.31
66176;BME280;52977;44.816;20.538;2023-06-14T01:23:23;99364.25;;;18.28;84.31
66176;BME280;52977;44.816;20.538;2023-06-14T01:25:51;99372.09;;;18.23;84.83
66176;BME280;52977;44.816;20.538;2023-06-14T01:28:21;99363.34;;;18.14;85.86
66176;BME280;52977;44.816;20.538;2023-06-14T01:30:53;99366.13;;;18.17;85.87
66176;BME280;52977;44.816;20.538;2023-06-14T01:33:22;99366.13;;;18.17;85.41
66176;BME280;52977;44.816;20.538;2023-06-14T01:35:51;99365.22;;;18.02;86.19
66176;BME280;52977;44.816;20.538;2023-06-14T01:38:20;99368.00;;;18.06;85.84
66176;BME280;52977;44.816;20.538;2023-06-14T01:40:48;99363.66;;;18.05;86.95
66176;BME280;52977;44.816;20.538;2023-06-14T01:43:16;99348.53;;;17.91;87.61
66176;BME280;52977;44.816;20.538;2023-06-14T01:45:42;99359.78;;;18.13;86.81
66176;BME280;52977;44.816;20.538;2023-06-14T01:48:10;99351.06;;;18.11;86.37
66176;BME280;52977;44.816;20.538;2023-06-14T01:50:37;99366.63;;;18.30;86.54
66176;BME280;52977;44.816;20.538;2023-06-14T01:53:07;99272.25;;;17.76;85.87
66176;BME280;52977;44.816;20.538;2023-06-14T01:55:36;99290.50;;;17.88;86.24
66176;BME280;52977;44.816;20.538;2023-06-14T01:58:10;99377.03;;;18.48;86.53
66176;BME280;52977;44.816;20.538;2023-06-14T02:00:36;99343.25;;;18.20;87.34
66176;BME280;52977;44.816;20.538;2023-06-14T02:03:02;99330.22;;;18.17;87.77
66176;BME280;52977;44.816;20.538;2023-06-14T02:05:30;99380.63;;;18.52;87.81
66176;BME280;52977;44.816;20.538;2023-06-14T02:07:56;99381.38;;;18.49;88.25
66176;BME280;52977;44.816;20.538;2023-06-14T02:10:21;99363.53;;;18.35;88.39
66176;BME280;52977;44.816;20.538;2023-06-14T02:12:47;99382.13;;;18.45;88.22
66176;BME280;52977;44.816;20.538;2023-06-14T02:15:13;99381.66;;;18.36;88.88
66176;BME280;52977;44.816;20.538;2023-06-14T02:17:45;99389.16;;;18.32;90.17
66176;BME280;52977;44.816;20.538;2023-06-14T02:20:13;99333.63;;;18.00;90.52
66176;BME280;52977;44.816;20.538;2023-06-14T02:22:39;99366.53;;;18.19;91.10
66176;BME280;52977;44.816;20.538;2023-06-14T02:25:06;99379.28;;;18.35;92.00
66176;BME280;52977;44.816;20.538;2023-06-14T02:27:33;99341.41;;;17.90;94.67
66176;BME280;52977;44.816;20.538;2023-06-14T02:29:59;99296.97;;;17.62;94.82
66176;BME280;52977;44.816;20.538;2023-06-14T02:32:25;99334.25;;;17.86;95.09
66176;BME280;52977;44.816;20.538;2023-06-14T02:34:53;99355.31;;;17.98;95.03
66176;BME280;52977;44.816;20.538;2023-06-14T02:37:19;99387.47;;;18.20;95.11
66176;BME280;52977;44.816;20.538;2023-06-14T02:39:45;99368.84;;;18.14;95.12
66176;BME280;52977;44.816;20.538;2023-06-14T02:42:11;99373.94;;;18.08;94.43
66176;BME280;52977;44.816;20.538;2023-06-14T02:44:37;99302.91;;;17.64;94.80
66176;BME280;52977;44.816;20.538;2023-06-14T02:47:04;99384.94;;;18.01;96.12
66176;BME280;52977;44.816;20.538;2023-06-14T02:49:30;99297.66;;;17.14;99.01
66176;BME280;52977;44.816;20.538;2023-06-14T02:51:56;99361.50;;;17.50;99.70
66176;BME280;52977;44.816;20.538;2023-06-14T02:54:21;99312.06;;;16.73;100.00
66176;BME280;52977;44.816;20.538;2023-06-14T02:56:47;99397.72;;;17.45;100.00
66176;BME280;52977;44.816;20.538;2023-06-14T02:59:13;99394.13;;;17.40;100.00
66176;BME280;52977;44.816;20.538;2023-06-14T03:01:41;99402.19;;;17.26;100.00
66176;BME280;52977;44.816;20.538;2023-06-14T03:04:10;99400.72;;;17.32;100.00
66176;BME280;52977;44.816;20.538;2023-06-14T03:06:39;99406.59;;;17.31;100.00
66176;BME280;52977;44.816;20.538;2023-06-14T03:09:05;99313.19;;;16.68;100.00
66176;BME280;52977;44.816;20.538;2023-06-14T03:11:32;99351.78;;;16.95;100.00
66176;BME280;52977;44.816;20.538;2023-06-14T03:13:58;99401.88;;;17.31;100.00
66176;BME280;52977;44.816;20.538;2023-06-14T03:16:26;99389.97;;;17.23;100.00
66176;BME280;52977;44.816;20.538;2023-06-14T03:18:56;99406.78;;;17.45;100.00
66176;BME280;52977;44.816;20.538;2023-06-14T03:21:24;99408.00;;;17.48;100.00
66176;BME280;52977;44.816;20.538;2023-06-14T03:23:52;99379.34;;;17.25;100.00
66176;BME280;52977;44.816;20.538;2023-06-14T03:26:18;99405.22;;;17.48;100.00
66176;BME280;52977;44.816;20.538;2023-06-14T03:28:46;99376.03;;;17.47;100.00
66176;BME280;52977;44.816;20.538;2023-06-14T03:31:13;99407.03;;;17.67;100.00
66176;BME280;52977;44.816;20.538;2023-06-14T03:33:39;99396.03;;;17.70;100.00
66176;BME280;52977;44.816;20.538;2023-06-14T03:36:06;99346.00;;;17.38;100.00
66176;BME280;52977;44.816;20.538;2023-06-14T03:38:35;99385.13;;;17.47;100.00
66176;BME280;52977;44.816;20.538;2023-06-14T03:41:02;99421.56;;;17.64;100.00
66176;BME280;52977;44.816;20.538;2023-06-14T03:43:28;99413.25;;;17.60;100.00
66176;BME280;52977;44.816;20.538;2023-06-14T03:45:55;99366.63;;;17.17;100.00
66176;BME280;52977;44.816;20.538;2023-06-14T03:48:22;99393.31;;;17.40;100.00
66176;BME280;52977;44.816;20.538;2023-06-14T03:50:48;99394.72;;;17.57;100.00
66176;BME280;52977;44.816;20.538;2023-06-14T03:53:14;99397.47;;;17.57;100.00
66176;BME280;52977;44.816;20.538;2023-06-14T03:55:44;99311.63;;;16.98;100.00
66176;BME280;52977;44.816;20.538;2023-06-14T03:58:10;99411.41;;;17.71;100.00
66176;BME280;52977;44.816;20.538;2023-06-14T04:00:37;99419.75;;;17.75;100.00
66176;BME280;52977;44.816;20.538;2023-06-14T04:03:03;99395.63;;;17.72;100.00
66176;BME280;52977;44.816;20.538;2023-06-14T04:05:31;99412.69;;;17.81;100.00
66176;BME280;52977;44.816;20.538;2023-06-14T04:07:57;99422.59;;;17.82;100.00
66176;BME280;52977;44.816;20.538;2023-06-14T04:10:24;99420.91;;;17.74;100.00
66176;BME280;52977;44.816;20.538;2023-06-14T04:12:49;99437.50;;;17.77;100.00
66176;BME280;52977;44.816;20.538;2023-06-14T04:15:17;99414.97;;;17.72;100.00
66176;BME280;52977;44.816;20.538;2023-06-14T04:17:43;99435.56;;;17.82;100.00
66176;BME280;52977;44.816;20.538;2023-06-14T04:20:09;99400.09;;;17.46;100.00
66176;BME280;52977;44.816;20.538;2023-06-14T04:22:36;99363.84;;;17.48;100.00
66176;BME280;52977;44.816;20.538;2023-06-14T04:25:03;99436.22;;;18.02;100.00
66176;BME280;52977;44.816;20.538;2023-06-14T04:27:32;99399.66;;;17.78;100.00
66176;BME280;52977;44.816;20.538;2023-06-14T04:30:02;99438.88;;;17.91;100.00
66176;BME280;52977;44.816;20.538;2023-06-14T04:32:34;99436.88;;;17.91;100.00
66176;BME280;52977;44.816;20.538;2023-06-14T04:35:07;99448.75;;;17.92;100.00
66176;BME280;52977;44.816;20.538;2023-06-14T04:37:34;99411.09;;;17.80;100.00
66176;BME280;52977;44.816;20.538;2023-06-14T04:40:00;99436.59;;;18.00;100.00
66176;BME280;52977;44.816;20.538;2023-06-14T04:42:26;99450.75;;;17.95;100.00
66176;BME280;52977;44.816;20.538;2023-06-14T04:44:55;99444.78;;;17.93;100.00
66176;BME280;52977;44.816;20.538;2023-06-14T04:47:22;99419.00;;;17.82;100.00
66176;BME280;52977;44.816;20.538;2023-06-14T04:49:50;99438.09;;;17.94;100.00
66176;BME280;52977;44.816;20.538;2023-06-14T04:52:20;99450.88;;;18.06;100.00
66176;BME280;52977;44.816;20.538;2023-06-14T04:54:52;99454.78;;;18.05;100.00
66176;BME280;52977;44.816;20.538;2023-06-14T04:57:20;99425.13;;;17.98;100.00
66176;BME280;52977;44.816;20.538;2023-06-14T04:59:48;99409.72;;;17.97;100.00
66176;BME280;52977;44.816;20.538;2023-06-14T05:02:17;99424.47;;;18.08;100.00
66176;BME280;52977;44.816;20.538;2023-06-14T05:04:42;99449.06;;;18.24;100.00
66176;BME280;52977;44.816;20.538;2023-06-14T05:07:08;99450.28;;;18.27;100.00
66176;BME280;52977;44.816;20.538;2023-06-14T05:09:35;99464.53;;;18.33;100.00
66176;BME280;52977;44.816;20.538;2023-06-14T05:12:01;99461.13;;;18.50;100.00
66176;BME280;52977;44.816;20.538;2023-06-14T05:14:27;99412.81;;;18.30;100.00
66176;BME280;52977;44.816;20.538;2023-06-14T05:16:53;99439.41;;;18.49;100.00
66176;BME280;52977;44.816;20.538;2023-06-14T05:19:19;99466.16;;;18.37;100.00
66176;BME280;52977;44.816;20.538;2023-06-14T05:21:47;99459.84;;;18.37;100.00
66176;BME280;52977;44.816;20.538;2023-06-14T05:24:16;99469.75;;;18.41;100.00
66176;BME280;52977;44.816;20.538;2023-06-14T05:26:43;99465.47;;;18.51;100.00
66176;BME280;52977;44.816;20.538;2023-06-14T05:29:09;99458.72;;;18.45;100.00
66176;BME280;52977;44.816;20.538;2023-06-14T05:31:34;99431.06;;;18.41;100.00
66176;BME280;52977;44.816;20.538;2023-06-14T05:34:00;99458.69;;;18.41;100.00
66176;BME280;52977;44.816;20.538;2023-06-14T05:36:25;99461.88;;;18.47;100.00
66176;BME280;52977;44.816;20.538;2023-06-14T05:38:53;99463.53;;;18.55;100.00
66176;BME280;52977;44.816;20.538;2023-06-14T05:41:26;99458.13;;;18.66;100.00
66176;BME280;52977;44.816;20.538;2023-06-14T05:43:56;99429.47;;;18.40;100.00
66176;BME280;52977;44.816;20.538;2023-06-14T05:46:22;99446.56;;;18.53;100.00
66176;BME280;52977;44.816;20.538;2023-06-14T05:48:50;99456.91;;;18.64;100.00
66176;BME280;52977;44.816;20.538;2023-06-14T05:51:16;99460.00;;;18.58;100.00
66176;BME280;52977;44.816;20.538;2023-06-14T05:53:48;99464.69;;;18.51;100.00
66176;BME280;52977;44.816;20.538;2023-06-14T05:56:15;99460.38;;;18.53;100.00
66176;BME280;52977;44.816;20.538;2023-06-14T05:58:44;99473.53;;;18.67;100.00
66176;BME280;52977;44.816;20.538;2023-06-14T06:01:10;99456.84;;;18.56;100.00
66176;BME280;52977;44.816;20.538;2023-06-14T06:03:37;99474.69;;;18.66;100.00
66176;BME280;52977;44.816;20.538;2023-06-14T06:06:04;99469.50;;;18.61;100.00
66176;BME280;52977;44.816;20.538;2023-06-14T06:08:30;99479.88;;;18.75;100.00
66176;BME280;52977;44.816;20.538;2023-06-14T06:10:57;99464.06;;;18.72;100.00
66176;BME280;52977;44.816;20.538;2023-06-14T06:13:22;99416.16;;;18.57;100.00
66176;BME280;52977;44.816;20.538;2023-06-14T06:15:48;99443.94;;;18.75;100.00
66176;BME280;52977;44.816;20.538;2023-06-14T06:18:33;99484.13;;;19.06;100.00
66176;BME280;52977;44.816;20.538;2023-06-14T06:20:59;99481.78;;;19.12;100.00
66176;BME280;52977;44.816;20.538;2023-06-14T06:23:25;99493.88;;;18.89;100.00
66176;BME280;52977;44.816;20.538;2023-06-14T06:25:51;99472.09;;;18.88;100.00
66176;BME280;52977;44.816;20.538;2023-06-14T06:28:17;99489.69;;;19.13;100.00
66176;BME280;52977;44.816;20.538;2023-06-14T06:30:44;99486.19;;;19.24;100.00
66176;BME280;52977;44.816;20.538;2023-06-14T06:33:10;99462.69;;;18.96;100.00
66176;BME280;52977;44.816;20.538;2023-06-14T06:35:36;99458.78;;;19.04;100.00
66176;BME280;52977;44.816;20.538;2023-06-14T06:38:02;99461.47;;;18.93;100.00
66176;BME280;52977;44.816;20.538;2023-06-14T06:40:28;99488.13;;;19.20;100.00
66176;BME280;52977;44.816;20.538;2023-06-14T06:42:55;99458.84;;;19.08;100.00
66176;BME280;52977;44.816;20.538;2023-06-14T06:45:21;99470.78;;;19.26;99.93
66176;BME280;52977;44.816;20.538;2023-06-14T06:47:49;99485.81;;;19.29;100.00
66176;BME280;52977;44.816;20.538;2023-06-14T06:50:15;99456.84;;;19.08;100.00
66176;BME280;52977;44.816;20.538;2023-06-14T06:52:41;99443.31;;;18.92;97.76
66176;BME280;52977;44.816;20.538;2023-06-14T06:55:08;99493.69;;;19.23;97.95
66176;BME280;52977;44.816;20.538;2023-06-14T06:57:36;99490.59;;;19.32;97.03
66176;BME280;52977;44.816;20.538;2023-06-14T07:00:02;99498.13;;;19.39;95.63
66176;BME280;52977;44.816;20.538;2023-06-14T07:02:30;99458.00;;;19.07;92.42
66176;BME280;52977;44.816;20.538;2023-06-14T07:04:56;99441.28;;;18.86;92.68
66176;BME280;52977;44.816;20.538;2023-06-14T07:07:22;99504.78;;;19.27;89.79
66176;BME280;52977;44.816;20.538;2023-06-14T07:09:47;99467.09;;;19.04;91.76
66176;BME280;52977;44.816;20.538;2023-06-14T07:12:13;99490.47;;;19.14;86.06
66176;BME280;52977;44.816;20.538;2023-06-14T07:14:39;99497.19;;;19.13;86.48
66176;BME280;52977;44.816;20.538;2023-06-14T07:17:08;99488.88;;;19.09;87.72
66176;BME280;52977;44.816;20.538;2023-06-14T07:19:35;99498.88;;;19.28;88.17
66176;BME280;52977;44.816;20.538;2023-06-14T07:22:01;99519.94;;;19.51;88.05
66176;BME280;52977;44.816;20.538;2023-06-14T07:24:27;99527.44;;;19.51;84.92
66176;BME280;52977;44.816;20.538;2023-06-14T07:26:53;99518.31;;;19.46;84.41
66176;BME280;52977;44.816;20.538;2023-06-14T07:29:20;99503.22;;;19.29;84.33
66176;BME280;52977;44.816;20.538;2023-06-14T07:31:46;99500.66;;;18.99;81.59
66176;BME280;52977;44.816;20.538;2023-06-14T07:34:14;99505.03;;;19.04;85.29
66176;BME280;52977;44.816;20.538;2023-06-14T07:36:43;99535.91;;;19.13;84.82
66176;BME280;52977;44.816;20.538;2023-06-14T07:39:10;99457.66;;;18.60;87.51
66176;BME280;52977;44.816;20.538;2023-06-14T07:41:35;99537.06;;;19.05;85.69
66176;BME280;52977;44.816;20.538;2023-06-14T07:44:01;99495.13;;;18.99;83.79
66176;BME280;52977;44.816;20.538;2023-06-14T07:46:27;99525.72;;;19.24;82.28
66176;BME280;52977;44.816;20.538;2023-06-14T07:48:53;99497.56;;;19.08;82.64
66176;BME280;52977;44.816;20.538;2023-06-14T07:51:19;99531.78;;;19.44;80.97
66176;BME280;52977;44.816;20.538;2023-06-14T07:53:45;99530.22;;;19.51;80.77
66176;BME280;52977;44.816;20.538;2023-06-14T07:56:11;99527.53;;;19.69;81.35
66176;BME280;52977;44.816;20.538;2023-06-14T07:58:37;99532.31;;;19.72;83.42
66176;BME280;52977;44.816;20.538;2023-06-14T08:01:03;99539.03;;;19.74;81.33
66176;BME280;52977;44.816;20.538;2023-06-14T08:03:32;99542.59;;;19.71;80.39
66176;BME280;52977;44.816;20.538;2023-06-14T08:05:57;99542.16;;;19.62;76.78
66176;BME280;52977;44.816;20.538;2023-06-14T08:08:24;99504.84;;;19.38;78.71
66176;BME280;52977;44.816;20.538;2023-06-14T08:10:50;99537.81;;;19.64;80.22
66176;BME280;52977;44.816;20.538;2023-06-14T08:13:16;99548.13;;;19.68;75.64
66176;BME280;52977;44.816;20.538;2023-06-14T08:15:42;99545.75;;;19.70;76.94
66176;BME280;52977;44.816;20.538;2023-06-14T08:18:07;99549.34;;;19.74;73.12
66176;BME280;52977;44.816;20.538;2023-06-14T08:20:33;99553.34;;;19.80;73.73
66176;BME280;52977;44.816;20.538;2023-06-14T08:23:00;99539.44;;;19.69;73.63
66176;BME280;52977;44.816;20.538;2023-06-14T08:25:26;99554.47;;;19.75;73.17
66176;BME280;52977;44.816;20.538;2023-06-14T08:27:51;99528.25;;;19.51;75.50
66176;BME280;52977;44.816;20.538;2023-06-14T08:30:17;99481.81;;;19.19;73.90
66176;BME280;52977;44.816;20.538;2023-06-14T08:32:43;99559.19;;;19.68;75.23
66176;BME280;52977;44.816;20.538;2023-06-14T08:35:09;99523.88;;;19.46;75.70
66176;BME280;52977;44.816;20.538;2023-06-14T08:37:38;99486.56;;;19.22;73.86
66176;BME280;52977;44.816;20.538;2023-06-14T08:40:06;99554.88;;;19.74;75.76
66176;BME280;52977;44.816;20.538;2023-06-14T08:42:38;99539.78;;;19.64;74.73
66176;BME280;52977;44.816;20.538;2023-06-14T08:45:04;99558.16;;;19.90;75.79
66176;BME280;52977;44.816;20.538;2023-06-14T08:47:30;99553.03;;;20.03;76.89
66176;BME280;52977;44.816;20.538;2023-06-14T08:50:02;99570.88;;;20.13;78.02
66176;BME280;52977;44.816;20.538;2023-06-14T08:52:32;99554.69;;;20.15;78.13
66176;BME280;52977;44.816;20.538;2023-06-14T08:54:59;99539.63;;;20.05;78.06
66176;BME280;52977;44.816;20.538;2023-06-14T08:57:26;99477.34;;;19.74;78.81
66176;BME280;52977;44.816;20.538;2023-06-14T08:59:56;99543.25;;;20.35;77.42
66176;BME280;52977;44.816;20.538;2023-06-14T09:02:22;99546.03;;;20.42;76.38
66176;BME280;52977;44.816;20.538;2023-06-14T09:04:48;99548.00;;;20.41;76.59
66176;BME280;52977;44.816;20.538;2023-06-14T09:07:15;99505.19;;;20.13;76.95
66176;BME280;52977;44.816;20.538;2023-06-14T09:09:41;99545.22;;;20.41;78.07
66176;BME280;52977;44.816;20.538;2023-06-14T09:12:10;99477.84;;;19.97;78.13
66176;BME280;52977;44.816;20.538;2023-06-14T09:14:38;99544.84;;;20.46;75.73
66176;BME280;52977;44.816;20.538;2023-06-14T09:17:06;99481.44;;;20.09;75.37
66176;BME280;52977;44.816;20.538;2023-06-14T09:19:33;99537.72;;;20.49;75.71
66176;BME280;52977;44.816;20.538;2023-06-14T09:21:59;99530.19;;;20.49;73.16
66176;BME280;52977;44.816;20.538;2023-06-14T09:24:25;99502.06;;;20.29;71.15
66176;BME280;52977;44.816;20.538;2023-06-14T09:29:18;99483.03;;;20.24;70.39
66176;BME280;52977;44.816;20.538;2023-06-14T09:31:47;99544.88;;;20.57;66.16
66176;BME280;52977;44.816;20.538;2023-06-14T09:34:13;99517.09;;;20.21;66.33
66176;BME280;52977;44.816;20.538;2023-06-14T09:36:39;99541.31;;;20.46;67.56
66176;BME280;52977;44.816;20.538;2023-06-14T09:39:08;99540.09;;;20.47;68.65
66176;BME280;52977;44.816;20.538;2023-06-14T09:41:36;99539.72;;;20.56;68.40
66176;BME280;52977;44.816;20.538;2023-06-14T09:44:04;99536.56;;;20.64;67.82
66176;BME280;52977;44.816;20.538;2023-06-14T09:46:30;99496.16;;;20.42;68.37
66176;BME280;52977;44.816;20.538;2023-06-14T09:49:00;99539.75;;;20.77;68.91
66176;BME280;52977;44.816;20.538;2023-06-14T09:51:27;99537.41;;;20.79;66.21
66176;BME280;52977;44.816;20.538;2023-06-14T09:53:58;99531.78;;;20.65;66.77
66176;BME280;52977;44.816;20.538;2023-06-14T09:56:28;99520.31;;;20.45;66.09
66176;BME280;52977;44.816;20.538;2023-06-14T09:58:58;99523.88;;;20.42;67.74
66176;BME280;52977;44.816;20.538;2023-06-14T10:01:25;99490.97;;;20.33;68.33
66176;BME280;52977;44.816;20.538;2023-06-14T10:04:03;99535.38;;;20.58;67.09
66176;BME280;52977;44.816;20.538;2023-06-14T10:06:30;99485.03;;;20.27;66.71
66176;BME280;52977;44.816;20.538;2023-06-14T10:08:58;99531.00;;;20.61;66.27
66176;BME280;52977;44.816;20.538;2023-06-14T10:11:26;99527.44;;;20.49;66.44
66176;BME280;52977;44.816;20.538;2023-06-14T10:13:56;99536.16;;;20.55;66.39
66176;BME280;52977;44.816;20.538;2023-06-14T10:16:32;99434.72;;;20.04;67.11
66176;BME280;52977;44.816;20.538;2023-06-14T10:19:06;99528.69;;;20.81;67.75
66176;BME280;52977;44.816;20.538;2023-06-14T10:21:37;99521.13;;;20.89;67.23
66176;BME280;52977;44.816;20.538;2023-06-14T10:24:10;99523.53;;;20.83;64.09
66176;BME280;52977;44.816;20.538;2023-06-14T10:26:50;99519.56;;;20.80;63.61
66176;BME280;52977;44.816;20.538;2023-06-14T10:29:16;99496.94;;;20.60;64.54
66176;BME280;52977;44.816;20.538;2023-06-14T10:31:47;99493.41;;;20.60;64.33
66176;BME280;52977;44.816;20.538;2023-06-14T10:34:24;99506.91;;;20.72;63.49
66176;BME280;52977;44.816;20.538;2023-06-14T10:37:05;99515.59;;;20.89;63.85
66176;BME280;52977;44.816;20.538;2023-06-14T10:39:38;99511.63;;;21.00;62.55
66176;BME280;52977;44.816;20.538;2023-06-14T10:42:05;99514.38;;;21.15;62.39
66176;BME280;52977;44.816;20.538;2023-06-14T10:44:45;99502.06;;;21.30;63.61
66176;BME280;52977;44.816;20.538;2023-06-14T10:47:21;99490.56;;;21.36;64.87
66176;BME280;52977;44.816;20.538;2023-06-14T10:50:05;99507.97;;;21.58;63.33
66176;BME280;52977;44.816;20.538;2023-06-14T10:52:33;99496.88;;;21.47;62.25
66176;BME280;52977;44.816;20.538;2023-06-14T11:00:13;99489.38;;;21.22;63.20
66176;BME280;52977;44.816;20.538;2023-06-14T11:11:08;99492.50;;;21.49;62.66
66176;BME280;52977;44.816;20.538;2023-06-14T11:13:36;99496.06;;;21.57;63.15
66176;BME280;52977;44.816;20.538;2023-06-14T11:16:02;99444.97;;;21.37;62.06
66176;BME280;52977;44.816;20.538;2023-06-14T11:18:28;99490.03;;;21.77;62.36
66176;BME280;52977;44.816;20.538;2023-06-14T11:20:54;99488.47;;;21.76;61.85
66176;BME280;52977;44.816;20.538;2023-06-14T11:23:21;99488.88;;;21.74;61.10
66176;BME280;52977;44.816;20.538;2023-06-14T11:25:51;99439.78;;;21.53;60.76
66176;BME280;52977;44.816;20.538;2023-06-14T11:28:16;99424.31;;;21.52;58.76
66176;BME280;52977;44.816;20.538;2023-06-14T11:30:42;99478.91;;;21.84;55.89
66176;BME280;52977;44.816;20.538;2023-06-14T11:33:10;99478.91;;;21.80;55.86
66176;BME280;52977;44.816;20.538;2023-06-14T11:35:36;99469.44;;;21.74;56.34
66176;BME280;52977;44.816;20.538;2023-06-14T11:38:02;99476.03;;;22.02;57.01
66176;BME280;52977;44.816;20.538;2023-06-14T11:40:28;99479.91;;;22.15;54.91
66176;BME280;52977;44.816;20.538;2023-06-14T11:43:01;99478.31;;;22.18;53.34
66176;BME280;52977;44.816;20.538;2023-06-14T11:45:29;99478.66;;;22.27;54.36
66176;BME280;52977;44.816;20.538;2023-06-14T11:47:56;99470.28;;;22.31;54.27
66176;BME280;52977;44.816;20.538;2023-06-14T11:50:22;99466.00;;;22.19;55.61
66176;BME280;52977;44.816;20.538;2023-06-14T11:52:56;99437.97;;;21.92;52.89
66176;BME280;52977;44.816;20.538;2023-06-14T11:55:23;99468.38;;;22.21;54.83
66176;BME280;52977;44.816;20.538;2023-06-14T11:57:50;99462.06;;;22.16;55.75
66176;BME280;52977;44.816;20.538;2023-06-14T12:00:16;99458.09;;;22.14;55.51
66176;BME280;52977;44.816;20.538;2023-06-14T12:02:52;99469.50;;;22.30;56.17
66176;BME280;52977;44.816;20.538;2023-06-14T12:05:21;99466.63;;;22.45;55.07
66176;BME280;52977;44.816;20.538;2023-06-14T12:07:48;99434.53;;;22.36;53.06
66176;BME280;52977;44.816;20.538;2023-06-14T12:10:16;99461.06;;;22.48;54.58
66176;BME280;52977;44.816;20.538;2023-06-14T12:12:42;99457.47;;;22.48;55.14
66176;BME280;52977;44.816;20.538;2023-06-14T12:15:09;99448.75;;;22.46;56.36
66176;BME280;52977;44.816;20.538;2023-06-14T12:17:38;99421.47;;;22.30;55.90
66176;BME280;52977;44.816;20.538;2023-06-14T12:20:12;99402.91;;;22.16;55.62
66176;BME280;52977;44.816;20.538;2023-06-14T12:22:52;99455.44;;;22.56;55.32
66176;BME280;52977;44.816;20.538;2023-06-14T12:25:34;99452.91;;;22.72;55.94
66176;BME280;52977;44.816;20.538;2023-06-14T12:28:06;99461.28;;;23.10;55.53
66176;BME280;52977;44.816;20.538;2023-06-14T12:30:34;99397.09;;;22.90;53.22
66176;BME280;52977;44.816;20.538;2023-06-14T12:33:04;99436.75;;;23.40;53.30
66176;BME280;52977;44.816;20.538;2023-06-14T12:35:31;99426.31;;;23.47;52.65
66176;BME280;52977;44.816;20.538;2023-06-14T12:37:58;99421.72;;;23.64;51.84
66176;BME280;52977;44.816;20.538;2023-06-14T12:40:25;99422.63;;;23.85;51.79
66176;BME280;52977;44.816;20.538;2023-06-14T12:42:52;99418.50;;;23.97;50.86
66176;BME280;52977;44.816;20.538;2023-06-14T12:45:18;99402.19;;;23.95;51.77
66176;BME280;52977;44.816;20.538;2023-06-14T12:47:44;99348.44;;;23.67;50.59
66176;BME280;52977;44.816;20.538;2023-06-14T12:50:10;99406.72;;;24.13;51.23
66176;BME280;52977;44.816;20.538;2023-06-14T12:52:36;99365.78;;;23.51;50.96
66176;BME280;52977;44.816;20.538;2023-06-14T12:55:04;99391.25;;;24.08;51.51
66176;BME280;52977;44.816;20.538;2023-06-14T12:57:29;99384.19;;;24.00;51.09
66176;BME280;52977;44.816;20.538;2023-06-14T12:59:55;99412.94;;;24.24;50.09
66176;BME280;52977;44.816;20.538;2023-06-14T13:02:21;99376.69;;;23.97;50.53
66176;BME280;52977;44.816;20.538;2023-06-14T13:04:49;99400.78;;;24.11;50.44
66176;BME280;52977;44.816;20.538;2023-06-14T13:07:14;99406.97;;;24.22;50.67
66176;BME280;52977;44.816;20.538;2023-06-14T13:09:41;99386.41;;;23.85;50.57